sensor_id;sensor_type;location;lat;lon;timestamp;P1;durP1;ratioP1;P2;durP2;ratioP2
41466;SDS011;27205;53.690;19.948;2023-04-25T00:00:26;4.70;;;4.40;;
41466;SDS011;27205;53.690;19.948;2023-04-25T00:05:49;5.20;;;4.90;;
41466;SDS011;27205;53.690;19.948;2023-04-25T00:10:54;4.10;;;3.90;;
41466;SDS011;27205;53.690;19.948;2023-04-25T00:15:57;4.70;;;4.40;;
41466;SDS011;27205;53.690;19.948;2023-04-25T00:21:02;4.60;;;4.30;;
41466;SDS011;27205;53.690;19.948;2023-04-25T00:26:08;4.40;;;4.00;;
41466;SDS011;27205;53.690;19.948;2023-04-25T00:31:12;4.60;;;4.30;;
41466;SDS011;27205;53.690;19.948;2023-04-25T00:41:20;4.40;;;4.10;;
41466;SDS011;27205;53.690;19.948;2023-04-25T00:46:23;4.80;;;4.50;;
41466;SDS011;27205;53.690;19.948;2023-04-25T00:51:27;4.20;;;4.00;;
41466;SDS011;27205;53.690;19.948;2023-04-25T01:01:34;5.30;;;4.80;;
41466;SDS011;27205;53.690;19.948;2023-04-25T01:06:38;4.60;;;4.30;;
41466;SDS011;27205;53.690;19.948;2023-04-25T01:11:43;4.30;;;4.10;;
41466;SDS011;27205;53.690;19.948;2023-04-25T01:16:46;3.90;;;3.70;;
41466;SDS011;27205;53.690;19.948;2023-04-25T01:21:51;3.80;;;3.60;;
41466;SDS011;27205;53.690;19.948;2023-04-25T01:26:58;3.90;;;3.70;;
41466;SDS011;27205;53.690;19.948;2023-04-25T01:32:03;4.40;;;4.10;;
41466;SDS011;27205;53.690;19.948;2023-04-25T01:37:08;4.40;;;4.10;;
41466;SDS011;27205;53.690;19.948;2023-04-25T01:42:12;4.60;;;4.30;;
41466;SDS011;27205;53.690;19.948;2023-04-25T01:47:16;4.30;;;4.00;;
41466;SDS011;27205;53.690;19.948;2023-04-25T01:52:19;5.30;;;4.90;;
41466;SDS011;27205;53.690;19.948;2023-04-25T01:57:23;4.50;;;4.20;;
41466;SDS011;27205;53.690;19.948;2023-04-25T02:02:26;6.30;;;5.70;;
41466;SDS011;27205;53.690;19.948;2023-04-25T02:07:30;5.30;;;4.90;;
41466;SDS011;27205;53.690;19.948;2023-04-25T02:12:35;5.20;;;4.90;;
41466;SDS011;27205;53.690;19.948;2023-04-25T02:17:39;6.50;;;6.00;;
41466;SDS011;27205;53.690;19.948;2023-04-25T02:22:42;6.10;;;5.70;;
41466;SDS011;27205;53.690;19.948;2023-04-25T02:27:46;7.20;;;6.60;;
41466;SDS011;27205;53.690;19.948;2023-04-25T02:32:50;6.20;;;5.80;;
41466;SDS011;27205;53.690;19.948;2023-04-25T02:37:54;6.80;;;6.30;;
41466;SDS011;27205;53.690;19.948;2023-04-25T02:42:57;7.30;;;6.80;;
41466;SDS011;27205;53.690;19.948;2023-04-25T02:48:02;7.10;;;6.60;;
41466;SDS011;27205;53.690;19.948;2023-04-25T02:53:06;6.90;;;6.30;;
41466;SDS011;27205;53.690;19.948;2023-04-25T02:58:09;6.30;;;5.90;;
41466;SDS011;27205;53.690;19.948;2023-04-25T03:03:13;6.80;;;6.30;;
41466;SDS011;27205;53.690;19.948;2023-04-25T03:08:18;6.30;;;5.90;;
41466;SDS011;27205;53.690;19.948;2023-04-25T03:13:22;7.20;;;6.70;;
41466;SDS011;27205;53.690;19.948;2023-04-25T03:18:25;7.80;;;7.20;;
41466;SDS011;27205;53.690;19.948;2023-04-25T03:23:28;7.10;;;6.60;;
41466;SDS011;27205;53.690;19.948;2023-04-25T03:28:32;7.70;;;7.00;;
41466;SDS011;27205;53.690;19.948;2023-04-25T03:33:35;7.50;;;7.00;;
41466;SDS011;27205;53.690;19.948;2023-04-25T03:38:39;6.70;;;6.30;;
41466;SDS011;27205;53.690;19.948;2023-04-25T03:43:44;7.30;;;6.80;;
41466;SDS011;27205;53.690;19.948;2023-04-25T03:48:48;9.70;;;9.00;;
41466;SDS011;27205;53.690;19.948;2023-04-25T03:53:51;10.10;;;9.40;;
41466;SDS011;27205;53.690;19.948;2023-04-25T04:03:58;7.00;;;6.50;;
41466;SDS011;27205;53.690;19.948;2023-04-25T04:09:02;9.10;;;8.40;;
41466;SDS011;27205;53.690;19.948;2023-04-25T04:14:06;8.30;;;7.70;;
41466;SDS011;27205;53.690;19.948;2023-04-25T04:19:10;7.50;;;7.00;;
41466;SDS011;27205;53.690;19.948;2023-04-25T04:24:14;7.70;;;7.10;;
41466;SDS011;27205;53.690;19.948;2023-04-25T04:29:19;8.30;;;7.60;;
41466;SDS011;27205;53.690;19.948;2023-04-25T04:34:25;7.60;;;7.10;;
41466;SDS011;27205;53.690;19.948;2023-04-25T04:39:30;7.20;;;6.70;;
41466;SDS011;27205;53.690;19.948;2023-04-25T04:44:33;7.50;;;7.00;;
41466;SDS011;27205;53.690;19.948;2023-04-25T04:49:37;7.50;;;7.00;;
41466;SDS011;27205;53.690;19.948;2023-04-25T04:54:40;6.50;;;6.00;;
41466;SDS011;27205;53.690;19.948;2023-04-25T04:59:44;6.40;;;6.00;;
41466;SDS011;27205;53.690;19.948;2023-04-25T05:04:47;3.70;;;3.50;;
41466;SDS011;27205;53.690;19.948;2023-04-25T05:09:51;5.20;;;4.90;;
41466;SDS011;27205;53.690;19.948;2023-04-25T05:14:55;4.20;;;4.00;;
41466;SDS011;27205;53.690;19.948;2023-04-25T05:19:58;3.80;;;3.50;;
41466;SDS011;27205;53.690;19.948;2023-04-25T05:25:02;3.80;;;3.30;;
41466;SDS011;27205;53.690;19.948;2023-04-25T05:30:06;3.90;;;3.60;;
41466;SDS011;27205;53.690;19.948;2023-04-25T05:35:11;3.30;;;3.10;;
41466;SDS011;27205;53.690;19.948;2023-04-25T05:40:15;2.60;;;2.50;;
41466;SDS011;27205;53.690;19.948;2023-04-25T05:45:18;3.40;;;3.20;;
41466;SDS011;27205;53.690;19.948;2023-04-25T05:50:22;2.90;;;2.70;;
41466;SDS011;27205;53.690;19.948;2023-04-25T05:55:25;3.40;;;3.20;;
41466;SDS011;27205;53.690;19.948;2023-04-25T06:00:29;2.90;;;2.70;;
41466;SDS011;27205;53.690;19.948;2023-04-25T06:05:32;3.30;;;2.90;;
41466;SDS011;27205;53.690;19.948;2023-04-25T06:10:36;2.90;;;2.60;;
41466;SDS011;27205;53.690;19.948;2023-04-25T06:15:40;2.50;;;2.40;;
41466;SDS011;27205;53.690;19.948;2023-04-25T06:20:44;3.20;;;2.70;;
41466;SDS011;27205;53.690;19.948;2023-04-25T06:25:47;2.80;;;2.60;;
41466;SDS011;27205;53.690;19.948;2023-04-25T06:30:51;3.00;;;2.90;;
41466;SDS011;27205;53.690;19.948;2023-04-25T06:35:54;3.00;;;2.80;;
41466;SDS011;27205;53.690;19.948;2023-04-25T06:40:58;2.80;;;2.60;;
41466;SDS011;27205;53.690;19.948;2023-04-25T06:46:01;3.70;;;3.40;;
41466;SDS011;27205;53.690;19.948;2023-04-25T06:51:05;4.10;;;3.70;;
41466;SDS011;27205;53.690;19.948;2023-04-25T06:56:08;3.50;;;3.30;;
41466;SDS011;27205;53.690;19.948;2023-04-25T07:01:13;9.90;;;9.00;;
41466;SDS011;27205;53.690;19.948;2023-04-25T07:06:17;12.30;;;11.20;;
41466;SDS011;27205;53.690;19.948;2023-04-25T07:11:20;16.60;;;14.80;;
41466;SDS011;27205;53.690;19.948;2023-04-25T07:16:24;4.40;;;4.10;;
41466;SDS011;27205;53.690;19.948;2023-04-25T07:21:28;3.50;;;3.30;;
41466;SDS011;27205;53.690;19.948;2023-04-25T07:26:31;3.20;;;3.00;;
41466;SDS011;27205;53.690;19.948;2023-04-25T07:31:35;4.20;;;3.90;;
41466;SDS011;27205;53.690;19.948;2023-04-25T07:36:39;3.60;;;3.30;;
41466;SDS011;27205;53.690;19.948;2023-04-25T07:46:46;4.10;;;3.80;;
41466;SDS011;27205;53.690;19.948;2023-04-25T07:51:50;3.00;;;2.80;;
41466;SDS011;27205;53.690;19.948;2023-04-25T07:56:53;2.90;;;2.80;;
41466;SDS011;27205;53.690;19.948;2023-04-25T08:01:57;4.20;;;3.90;;
41466;SDS011;27205;53.690;19.948;2023-04-25T08:07:01;4.40;;;4.10;;
41466;SDS011;27205;53.690;19.948;2023-04-25T08:12:04;3.20;;;3.00;;
41466;SDS011;27205;53.690;19.948;2023-04-25T08:17:09;2.90;;;2.70;;
41466;SDS011;27205;53.690;19.948;2023-04-25T08:22:13;2.80;;;2.60;;
41466;SDS011;27205;53.690;19.948;2023-04-25T08:27:20;3.50;;;3.30;;
41466;SDS011;27205;53.690;19.948;2023-04-25T08:32:23;3.30;;;3.10;;
41466;SDS011;27205;53.690;19.948;2023-04-25T08:37:27;3.50;;;3.30;;
41466;SDS011;27205;53.690;19.948;2023-04-25T08:42:30;3.80;;;3.50;;
41466;SDS011;27205;53.690;19.948;2023-04-25T08:47:36;4.40;;;4.10;;
41466;SDS011;27205;53.690;19.948;2023-04-25T08:52:44;3.20;;;3.00;;
41466;SDS011;27205;53.690;19.948;2023-04-25T08:57:52;4.00;;;3.70;;
41466;SDS011;27205;53.690;19.948;2023-04-25T09:02:58;4.50;;;4.30;;
41466;SDS011;27205;53.690;19.948;2023-04-25T09:08:02;3.70;;;3.40;;
41466;SDS011;27205;53.690;19.948;2023-04-25T09:18:09;3.00;;;2.80;;
41466;SDS011;27205;53.690;19.948;2023-04-25T09:23:13;3.60;;;3.40;;
41466;SDS011;27205;53.690;19.948;2023-04-25T09:28:25;3.40;;;3.20;;
41466;SDS011;27205;53.690;19.948;2023-04-25T09:33:32;3.60;;;3.30;;
41466;SDS011;27205;53.690;19.948;2023-04-25T09:38:40;3.50;;;3.30;;
41466;SDS011;27205;53.690;19.948;2023-04-25T09:43:48;2.90;;;2.70;;
41466;SDS011;27205;53.690;19.948;2023-04-25T09:48:53;3.40;;;3.20;;
41466;SDS011;27205;53.690;19.948;2023-04-25T09:53:57;2.50;;;2.40;;
41466;SDS011;27205;53.690;19.948;2023-04-25T09:59:00;3.00;;;2.80;;
41466;SDS011;27205;53.690;19.948;2023-04-25T10:04:05;3.30;;;3.10;;
41466;SDS011;27205;53.690;19.948;2023-04-25T10:09:15;2.80;;;2.70;;
41466;SDS011;27205;53.690;19.948;2023-04-25T10:14:20;2.60;;;2.50;;
41466;SDS011;27205;53.690;19.948;2023-04-25T10:19:25;2.90;;;2.70;;
41466;SDS011;27205;53.690;19.948;2023-04-25T10:24:30;2.30;;;2.20;;
41466;SDS011;27205;53.690;19.948;2023-04-25T10:29:34;2.50;;;2.30;;
41466;SDS011;27205;53.690;19.948;2023-04-25T10:39:45;2.10;;;2.00;;
41466;SDS011;27205;53.690;19.948;2023-04-25T10:45:03;2.00;;;1.90;;
41466;SDS011;27205;53.690;19.948;2023-04-25T10:50:08;2.90;;;2.70;;
41466;SDS011;27205;53.690;19.948;2023-04-25T10:55:12;2.90;;;2.70;;
41466;SDS011;27205;53.690;19.948;2023-04-25T11:00:16;2.40;;;2.30;;
41466;SDS011;27205;53.690;19.948;2023-04-25T11:05:23;2.70;;;2.50;;
41466;SDS011;27205;53.690;19.948;2023-04-25T11:10:36;2.00;;;1.90;;
41466;SDS011;27205;53.690;19.948;2023-04-25T11:15:39;2.30;;;2.10;;
41466;SDS011;27205;53.690;19.948;2023-04-25T11:20:43;2.20;;;2.10;;
41466;SDS011;27205;53.690;19.948;2023-04-25T11:25:47;2.10;;;2.00;;
41466;SDS011;27205;53.690;19.948;2023-04-25T11:30:52;2.80;;;2.60;;
41466;SDS011;27205;53.690;19.948;2023-04-25T11:35:56;2.40;;;2.30;;
41466;SDS011;27205;53.690;19.948;2023-04-25T11:40:59;2.30;;;2.10;;
41466;SDS011;27205;53.690;19.948;2023-04-25T11:46:07;2.40;;;2.30;;
41466;SDS011;27205;53.690;19.948;2023-04-25T11:51:11;2.40;;;2.20;;
41466;SDS011;27205;53.690;19.948;2023-04-25T11:56:14;2.90;;;2.70;;
41466;SDS011;27205;53.690;19.948;2023-04-25T12:01:31;2.20;;;2.10;;
41466;SDS011;27205;53.690;19.948;2023-04-25T12:06:37;3.20;;;3.00;;
41466;SDS011;27205;53.690;19.948;2023-04-25T12:11:47;3.40;;;3.20;;
41466;SDS011;27205;53.690;19.948;2023-04-25T12:16:51;3.30;;;3.10;;
41466;SDS011;27205;53.690;19.948;2023-04-25T12:32:06;4.10;;;3.60;;
41466;SDS011;27205;53.690;19.948;2023-04-25T12:37:09;3.40;;;3.20;;
41466;SDS011;27205;53.690;19.948;2023-04-25T12:42:13;2.00;;;1.90;;
41466;SDS011;27205;53.690;19.948;2023-04-25T12:47:16;2.40;;;2.20;;
41466;SDS011;27205;53.690;19.948;2023-04-25T12:52:20;11.50;;;10.80;;
41466;SDS011;27205;53.690;19.948;2023-04-25T12:57:23;3.00;;;2.80;;
41466;SDS011;27205;53.690;19.948;2023-04-25T13:02:27;2.50;;;2.30;;
41466;SDS011;27205;53.690;19.948;2023-04-25T13:07:31;2.40;;;2.30;;
41466;SDS011;27205;53.690;19.948;2023-04-25T13:12:37;1.70;;;1.60;;
41466;SDS011;27205;53.690;19.948;2023-04-25T13:17:41;1.40;;;1.30;;
41466;SDS011;27205;53.690;19.948;2023-04-25T13:22:45;2.30;;;2.10;;
41466;SDS011;27205;53.690;19.948;2023-04-25T13:27:49;2.30;;;2.10;;
41466;SDS011;27205;53.690;19.948;2023-04-25T13:32:53;2.20;;;2.10;;
41466;SDS011;27205;53.690;19.948;2023-04-25T13:37:59;1.90;;;1.80;;
41466;SDS011;27205;53.690;19.948;2023-04-25T13:43:03;1.90;;;1.70;;
41466;SDS011;27205;53.690;19.948;2023-04-25T13:53:11;1.50;;;1.40;;
41466;SDS011;27205;53.690;19.948;2023-04-25T13:58:15;1.70;;;1.30;;
41466;SDS011;27205;53.690;19.948;2023-04-25T14:03:18;3.80;;;2.00;;
41466;SDS011;27205;53.690;19.948;2023-04-25T14:08:22;2.50;;;2.30;;
41466;SDS011;27205;53.690;19.948;2023-04-25T14:13:26;2.00;;;1.90;;
41466;SDS011;27205;53.690;19.948;2023-04-25T14:23:33;3.00;;;2.80;;
41466;SDS011;27205;53.690;19.948;2023-04-25T14:28:36;1.80;;;1.70;;
41466;SDS011;27205;53.690;19.948;2023-04-25T14:33:40;2.10;;;2.00;;
41466;SDS011;27205;53.690;19.948;2023-04-25T14:38:45;6.50;;;6.00;;
41466;SDS011;27205;53.690;19.948;2023-04-25T14:43:49;3.90;;;3.20;;
41466;SDS011;27205;53.690;19.948;2023-04-25T14:53:59;3.10;;;2.80;;
41466;SDS011;27205;53.690;19.948;2023-04-25T14:59:02;5.10;;;4.70;;
41466;SDS011;27205;53.690;19.948;2023-04-25T15:04:06;3.70;;;3.50;;
41466;SDS011;27205;53.690;19.948;2023-04-25T15:09:22;9.40;;;8.70;;
41466;SDS011;27205;53.690;19.948;2023-04-25T15:14:28;15.10;;;14.00;;
41466;SDS011;27205;53.690;19.948;2023-04-25T15:19:32;6.30;;;5.90;;
41466;SDS011;27205;53.690;19.948;2023-04-25T15:24:35;4.60;;;3.40;;
41466;SDS011;27205;53.690;19.948;2023-04-25T15:29:39;4.10;;;3.80;;
41466;SDS011;27205;53.690;19.948;2023-04-25T15:34:43;6.60;;;6.10;;
41466;SDS011;27205;53.690;19.948;2023-04-25T15:39:46;5.80;;;5.40;;
41466;SDS011;27205;53.690;19.948;2023-04-25T15:44:50;5.40;;;4.90;;
41466;SDS011;27205;53.690;19.948;2023-04-25T15:49:53;4.10;;;3.60;;
41466;SDS011;27205;53.690;19.948;2023-04-25T15:54:57;6.90;;;6.30;;
41466;SDS011;27205;53.690;19.948;2023-04-25T16:00:01;5.30;;;4.90;;
41466;SDS011;27205;53.690;19.948;2023-04-25T16:05:28;2.70;;;2.50;;
41466;SDS011;27205;53.690;19.948;2023-04-25T16:10:32;2.50;;;2.40;;
41466;SDS011;27205;53.690;19.948;2023-04-25T16:15:35;4.20;;;3.30;;
41466;SDS011;27205;53.690;19.948;2023-04-25T16:20:39;3.40;;;3.00;;
41466;SDS011;27205;53.690;19.948;2023-04-25T16:25:42;4.00;;;3.70;;
41466;SDS011;27205;53.690;19.948;2023-04-25T16:30:46;3.70;;;3.40;;
41466;SDS011;27205;53.690;19.948;2023-04-25T16:35:49;3.70;;;3.40;;
41466;SDS011;27205;53.690;19.948;2023-04-25T16:40:54;4.20;;;3.80;;
41466;SDS011;27205;53.690;19.948;2023-04-25T16:45:58;3.40;;;3.10;;
41466;SDS011;27205;53.690;19.948;2023-04-25T16:51:03;3.00;;;2.70;;
41466;SDS011;27205;53.690;19.948;2023-04-25T16:56:07;3.10;;;2.70;;
41466;SDS011;27205;53.690;19.948;2023-04-25T17:01:10;5.60;;;3.00;;
41466;SDS011;27205;53.690;19.948;2023-04-25T17:06:18;4.30;;;3.80;;
41466;SDS011;27205;53.690;19.948;2023-04-25T17:11:21;3.50;;;3.20;;
41466;SDS011;27205;53.690;19.948;2023-04-25T17:16:33;3.50;;;3.20;;
41466;SDS011;27205;53.690;19.948;2023-04-25T17:21:40;6.60;;;6.10;;
41466;SDS011;27205;53.690;19.948;2023-04-25T17:26:44;4.80;;;4.40;;
41466;SDS011;27205;53.690;19.948;2023-04-25T17:31:50;5.10;;;4.40;;
41466;SDS011;27205;53.690;19.948;2023-04-25T17:36:55;4.00;;;3.60;;
41466;SDS011;27205;53.690;19.948;2023-04-25T17:41:59;3.60;;;3.30;;
41466;SDS011;27205;53.690;19.948;2023-04-25T17:47:02;4.00;;;3.60;;
41466;SDS011;27205;53.690;19.948;2023-04-25T17:52:09;4.50;;;3.70;;
41466;SDS011;27205;53.690;19.948;2023-04-25T17:57:12;5.90;;;4.40;;
41466;SDS011;27205;53.690;19.948;2023-04-25T18:02:16;5.70;;;3.60;;
41466;SDS011;27205;53.690;19.948;2023-04-25T18:07:20;5.20;;;4.30;;
41466;SDS011;27205;53.690;19.948;2023-04-25T18:12:23;2.60;;;2.30;;
41466;SDS011;27205;53.690;19.948;2023-04-25T18:17:29;4.50;;;3.80;;
41466;SDS011;27205;53.690;19.948;2023-04-25T18:22:33;4.20;;;3.70;;
41466;SDS011;27205;53.690;19.948;2023-04-25T18:27:38;4.70;;;4.10;;
41466;SDS011;27205;53.690;19.948;2023-04-25T18:32:42;4.50;;;4.00;;
41466;SDS011;27205;53.690;19.948;2023-04-25T18:37:46;3.70;;;3.30;;
41466;SDS011;27205;53.690;19.948;2023-04-25T18:42:50;4.40;;;3.20;;
41466;SDS011;27205;53.690;19.948;2023-04-25T18:47:54;4.60;;;3.70;;
41466;SDS011;27205;53.690;19.948;2023-04-25T18:52:58;4.10;;;3.30;;
41466;SDS011;27205;53.690;19.948;2023-04-25T18:58:02;4.40;;;3.00;;
41466;SDS011;27205;53.690;19.948;2023-04-25T19:03:06;4.70;;;3.90;;
41466;SDS011;27205;53.690;19.948;2023-04-25T19:08:09;5.00;;;4.40;;
41466;SDS011;27205;53.690;19.948;2023-04-25T19:13:13;5.00;;;4.00;;
41466;SDS011;27205;53.690;19.948;2023-04-25T19:18:17;6.30;;;5.40;;
41466;SDS011;27205;53.690;19.948;2023-04-25T19:23:20;6.40;;;3.80;;
41466;SDS011;27205;53.690;19.948;2023-04-25T19:28:27;4.20;;;3.10;;
41466;SDS011;27205;53.690;19.948;2023-04-25T19:33:32;5.80;;;4.00;;
41466;SDS011;27205;53.690;19.948;2023-04-25T19:38:35;7.00;;;4.30;;
41466;SDS011;27205;53.690;19.948;2023-04-25T19:43:39;9.00;;;4.80;;
41466;SDS011;27205;53.690;19.948;2023-04-25T19:48:42;5.30;;;4.10;;
41466;SDS011;27205;53.690;19.948;2023-04-25T19:53:46;5.20;;;3.60;;
41466;SDS011;27205;53.690;19.948;2023-04-25T19:58:49;4.90;;;4.20;;
41466;SDS011;27205;53.690;19.948;2023-04-25T20:14:01;4.40;;;3.30;;
41466;SDS011;27205;53.690;19.948;2023-04-25T20:19:07;7.70;;;5.00;;
41466;SDS011;27205;53.690;19.948;2023-04-25T20:24:10;7.30;;;5.90;;
41466;SDS011;27205;53.690;19.948;2023-04-25T20:29:14;5.70;;;4.20;;
41466;SDS011;27205;53.690;19.948;2023-04-25T20:34:17;6.10;;;4.90;;
41466;SDS011;27205;53.690;19.948;2023-04-25T20:39:30;5.80;;;4.70;;
41466;SDS011;27205;53.690;19.948;2023-04-25T20:44:36;5.50;;;5.00;;
41466;SDS011;27205;53.690;19.948;2023-04-25T20:49:42;6.10;;;4.80;;
41466;SDS011;27205;53.690;19.948;2023-04-25T20:54:45;6.90;;;5.00;;
41466;SDS011;27205;53.690;19.948;2023-04-25T20:59:56;5.40;;;4.20;;
41466;SDS011;27205;53.690;19.948;2023-04-25T21:05:00;5.10;;;4.50;;
41466;SDS011;27205;53.690;19.948;2023-04-25T21:10:08;5.40;;;4.00;;
41466;SDS011;27205;53.690;19.948;2023-04-25T21:15:15;6.40;;;5.00;;
41466;SDS011;27205;53.690;19.948;2023-04-25T21:20:30;6.90;;;6.00;;
41466;SDS011;27205;53.690;19.948;2023-04-25T21:25:34;4.80;;;4.30;;
41466;SDS011;27205;53.690;19.948;2023-04-25T21:31:02;4.10;;;3.50;;
41466;SDS011;27205;53.690;19.948;2023-04-25T21:36:14;7.70;;;4.70;;
41466;SDS011;27205;53.690;19.948;2023-04-25T21:41:43;5.00;;;3.60;;
41466;SDS011;27205;53.690;19.948;2023-04-25T21:46:53;5.00;;;3.90;;
41466;SDS011;27205;53.690;19.948;2023-04-25T21:52:18;4.50;;;3.60;;
41466;SDS011;27205;53.690;19.948;2023-04-25T21:57:27;4.50;;;3.80;;
41466;SDS011;27205;53.690;19.948;2023-04-25T22:02:31;6.00;;;4.40;;
41466;SDS011;27205;53.690;19.948;2023-04-25T22:07:36;3.90;;;3.40;;
41466;SDS011;27205;53.690;19.948;2023-04-25T22:13:06;4.40;;;3.80;;
41466;SDS011;27205;53.690;19.948;2023-04-25T22:18:56;5.80;;;3.80;;
41466;SDS011;27205;53.690;19.948;2023-04-25T22:24:28;4.40;;;4.00;;
41466;SDS011;27205;53.690;19.948;2023-04-25T22:29:58;5.70;;;4.40;;
41466;SDS011;27205;53.690;19.948;2023-04-25T22:36:01;4.90;;;4.40;;
41466;SDS011;27205;53.690;19.948;2023-04-25T22:41:13;6.50;;;5.40;;
41466;SDS011;27205;53.690;19.948;2023-04-25T22:46:24;6.60;;;5.30;;
41466;SDS011;27205;53.690;19.948;2023-04-25T22:51:31;7.60;;;5.90;;
41466;SDS011;27205;53.690;19.948;2023-04-25T22:56:35;7.20;;;5.20;;
41466;SDS011;27205;53.690;19.948;2023-04-25T23:01:41;6.20;;;4.90;;
41466;SDS011;27205;53.690;19.948;2023-04-25T23:06:52;5.30;;;4.60;;
41466;SDS011;27205;53.690;19.948;2023-04-25T23:11:55;4.70;;;4.10;;
41466;SDS011;27205;53.690;19.948;2023-04-25T23:17:00;4.80;;;4.30;;
41466;SDS011;27205;53.690;19.948;2023-04-25T23:22:04;5.10;;;3.80;;
41466;SDS011;27205;53.690;19.948;2023-04-25T23:27:08;8.80;;;5.00;;
41466;SDS011;27205;53.690;19.948;2023-04-25T23:32:11;4.10;;;3.70;;
41466;SDS011;27205;53.690;19.948;2023-04-25T23:37:15;5.10;;;4.20;;
41466;SDS011;27205;53.690;19.948;2023-04-25T23:42:18;4.80;;;4.20;;
41466;SDS011;27205;53.690;19.948;2023-04-25T23:47:22;5.10;;;4.40;;
41466;SDS011;27205;53.690;19.948;2023-04-25T23:52:25;5.50;;;5.00;;
41466;SDS011;27205;53.690;19.948;2023-04-25T23:57:30;6.60;;;5.60;;
